sensor_id;sensor_type;location;lat;lon;timestamp;P1;durP1;ratioP1;P2;durP2;ratioP2
56503;SDS011;48812;51.606;-0.114;2023-04-09T00:02:09;6.05;;;5.10;;
56503;SDS011;48812;51.606;-0.114;2023-04-09T00:04:42;6.13;;;4.65;;
56503;SDS011;48812;51.606;-0.114;2023-04-09T00:07:15;5.40;;;4.30;;
56503;SDS011;48812;51.606;-0.114;2023-04-09T00:09:47;5.97;;;4.80;;
56503;SDS011;48812;51.606;-0.114;2023-04-09T00:14:53;5.18;;;4.28;;
56503;SDS011;48812;51.606;-0.114;2023-04-09T00:17:27;7.72;;;4.90;;
56503;SDS011;48812;51.606;-0.114;2023-04-09T00:20:00;5.97;;;4.80;;
56503;SDS011;48812;51.606;-0.114;2023-04-09T00:22:32;5.37;;;4.60;;
56503;SDS011;48812;51.606;-0.114;2023-04-09T00:25:05;6.18;;;5.10;;
56503;SDS011;48812;51.606;-0.114;2023-04-09T00:27:39;7.78;;;4.72;;
56503;SDS011;48812;51.606;-0.114;2023-04-09T00:30:12;6.72;;;5.05;;
56503;SDS011;48812;51.606;-0.114;2023-04-09T00:32:45;5.93;;;5.00;;
56503;SDS011;48812;51.606;-0.114;2023-04-09T00:35:18;6.00;;;4.60;;
56503;SDS011;48812;51.606;-0.114;2023-04-09T00:37:50;7.00;;;4.60;;
56503;SDS011;48812;51.606;-0.114;2023-04-09T00:40:23;7.10;;;5.20;;
56503;SDS011;48812;51.606;-0.114;2023-04-09T00:42:57;5.97;;;4.88;;
56503;SDS011;48812;51.606;-0.114;2023-04-09T00:45:32;6.22;;;4.90;;
56503;SDS011;48812;51.606;-0.114;2023-04-09T00:48:05;6.95;;;5.30;;
56503;SDS011;48812;51.606;-0.114;2023-04-09T00:50:39;5.15;;;4.65;;
56503;SDS011;48812;51.606;-0.114;2023-04-09T00:53:13;6.05;;;4.90;;
56503;SDS011;48812;51.606;-0.114;2023-04-09T00:55:48;5.57;;;4.53;;
56503;SDS011;48812;51.606;-0.114;2023-04-09T00:58:21;5.35;;;4.85;;
56503;SDS011;48812;51.606;-0.114;2023-04-09T01:00:55;6.70;;;5.25;;
56503;SDS011;48812;51.606;-0.114;2023-04-09T01:03:29;6.40;;;5.28;;
56503;SDS011;48812;51.606;-0.114;2023-04-09T01:09:07;6.82;;;5.07;;
56503;SDS011;48812;51.606;-0.114;2023-04-09T01:12:41;6.47;;;4.55;;
56503;SDS011;48812;51.606;-0.114;2023-04-09T01:15:10;6.22;;;4.95;;
56503;SDS011;48812;51.606;-0.114;2023-04-09T01:17:49;5.80;;;4.97;;
56503;SDS011;48812;51.606;-0.114;2023-04-09T01:30:52;6.38;;;5.32;;
56503;SDS011;48812;51.606;-0.114;2023-04-09T01:33:30;6.00;;;4.60;;
56503;SDS011;48812;51.606;-0.114;2023-04-09T01:36:04;5.80;;;4.68;;
56503;SDS011;48812;51.606;-0.114;2023-04-09T01:38:41;6.35;;;4.70;;
56503;SDS011;48812;51.606;-0.114;2023-04-09T01:41:17;5.47;;;4.80;;
56503;SDS011;48812;51.606;-0.114;2023-04-09T01:43:52;6.95;;;5.13;;
56503;SDS011;48812;51.606;-0.114;2023-04-09T01:46:27;5.20;;;4.70;;
56503;SDS011;48812;51.606;-0.114;2023-04-09T01:49:01;5.95;;;4.85;;
56503;SDS011;48812;51.606;-0.114;2023-04-09T01:51:35;6.13;;;5.00;;
56503;SDS011;48812;51.606;-0.114;2023-04-09T01:54:09;7.78;;;5.40;;
56503;SDS011;48812;51.606;-0.114;2023-04-09T01:56:45;6.57;;;5.07;;
56503;SDS011;48812;51.606;-0.114;2023-04-09T01:59:21;6.30;;;4.72;;
56503;SDS011;48812;51.606;-0.114;2023-04-09T02:02:04;6.05;;;4.90;;
56503;SDS011;48812;51.606;-0.114;2023-04-09T02:04:42;5.55;;;4.80;;
56503;SDS011;48812;51.606;-0.114;2023-04-09T02:10:02;6.93;;;5.40;;
56503;SDS011;48812;51.606;-0.114;2023-04-09T02:12:38;6.57;;;4.97;;
56503;SDS011;48812;51.606;-0.114;2023-04-09T02:15:13;5.85;;;4.72;;
56503;SDS011;48812;51.606;-0.114;2023-04-09T02:17:46;6.72;;;5.00;;
56503;SDS011;48812;51.606;-0.114;2023-04-09T02:20:20;6.80;;;5.25;;
56503;SDS011;48812;51.606;-0.114;2023-04-09T02:22:53;5.72;;;5.10;;
56503;SDS011;48812;51.606;-0.114;2023-04-09T02:25:25;5.60;;;4.78;;
56503;SDS011;48812;51.606;-0.114;2023-04-09T02:28:03;5.63;;;4.97;;
56503;SDS011;48812;51.606;-0.114;2023-04-09T02:30:35;6.38;;;5.15;;
56503;SDS011;48812;51.606;-0.114;2023-04-09T02:33:08;6.60;;;5.00;;
56503;SDS011;48812;51.606;-0.114;2023-04-09T02:35:42;5.82;;;5.18;;
56503;SDS011;48812;51.606;-0.114;2023-04-09T02:38:14;7.23;;;5.33;;
56503;SDS011;48812;51.606;-0.114;2023-04-09T02:40:47;5.97;;;4.78;;
56503;SDS011;48812;51.606;-0.114;2023-04-09T02:43:19;5.22;;;4.70;;
56503;SDS011;48812;51.606;-0.114;2023-04-09T02:45:52;7.07;;;5.00;;
56503;SDS011;48812;51.606;-0.114;2023-04-09T02:48:25;6.30;;;5.00;;
56503;SDS011;48812;51.606;-0.114;2023-04-09T02:51:00;6.03;;;5.00;;
56503;SDS011;48812;51.606;-0.114;2023-04-09T02:53:36;6.25;;;4.78;;
56503;SDS011;48812;51.606;-0.114;2023-04-09T02:56:11;5.43;;;4.75;;
56503;SDS011;48812;51.606;-0.114;2023-04-09T02:58:44;5.28;;;4.68;;
56503;SDS011;48812;51.606;-0.114;2023-04-09T03:01:20;6.57;;;5.15;;
56503;SDS011;48812;51.606;-0.114;2023-04-09T03:03:54;5.97;;;5.20;;
56503;SDS011;48812;51.606;-0.114;2023-04-09T03:06:27;5.97;;;5.03;;
56503;SDS011;48812;51.606;-0.114;2023-04-09T03:09:00;6.32;;;5.15;;
56503;SDS011;48812;51.606;-0.114;2023-04-09T03:11:32;5.03;;;4.53;;
56503;SDS011;48812;51.606;-0.114;2023-04-09T03:14:05;6.60;;;5.13;;
56503;SDS011;48812;51.606;-0.114;2023-04-09T03:16:39;5.65;;;4.95;;
56503;SDS011;48812;51.606;-0.114;2023-04-09T03:19:13;5.20;;;4.53;;
56503;SDS011;48812;51.606;-0.114;2023-04-09T03:21:46;5.85;;;4.78;;
56503;SDS011;48812;51.606;-0.114;2023-04-09T03:24:21;5.85;;;4.70;;
56503;SDS011;48812;51.606;-0.114;2023-04-09T03:26:56;6.10;;;4.97;;
56503;SDS011;48812;51.606;-0.114;2023-04-09T03:32:37;5.18;;;4.68;;
56503;SDS011;48812;51.606;-0.114;2023-04-09T03:35:11;5.72;;;4.60;;
56503;SDS011;48812;51.606;-0.114;2023-04-09T03:37:47;6.15;;;5.00;;
56503;SDS011;48812;51.606;-0.114;2023-04-09T03:40:23;7.88;;;5.30;;
56503;SDS011;48812;51.606;-0.114;2023-04-09T03:42:56;6.00;;;5.07;;
56503;SDS011;48812;51.606;-0.114;2023-04-09T03:45:29;5.90;;;5.15;;
56503;SDS011;48812;51.606;-0.114;2023-04-09T03:48:16;6.07;;;5.40;;
56503;SDS011;48812;51.606;-0.114;2023-04-09T03:50:49;5.78;;;5.07;;
56503;SDS011;48812;51.606;-0.114;2023-04-09T03:53:33;6.03;;;5.15;;
56503;SDS011;48812;51.606;-0.114;2023-04-09T03:56:09;6.78;;;5.03;;
56503;SDS011;48812;51.606;-0.114;2023-04-09T03:58:42;5.38;;;4.88;;
56503;SDS011;48812;51.606;-0.114;2023-04-09T04:01:19;6.28;;;4.80;;
56503;SDS011;48812;51.606;-0.114;2023-04-09T04:03:59;6.07;;;5.03;;
56503;SDS011;48812;51.606;-0.114;2023-04-09T04:06:38;5.95;;;5.30;;
56503;SDS011;48812;51.606;-0.114;2023-04-09T04:09:35;6.00;;;5.22;;
56503;SDS011;48812;51.606;-0.114;2023-04-09T04:12:14;6.40;;;5.47;;
56503;SDS011;48812;51.606;-0.114;2023-04-09T04:15:08;6.50;;;5.20;;
56503;SDS011;48812;51.606;-0.114;2023-04-09T04:17:55;5.60;;;4.93;;
56503;SDS011;48812;51.606;-0.114;2023-04-09T04:21:12;7.93;;;5.18;;
56503;SDS011;48812;51.606;-0.114;2023-04-09T04:23:51;6.43;;;5.03;;
56503;SDS011;48812;51.606;-0.114;2023-04-09T04:26:29;6.22;;;5.32;;
56503;SDS011;48812;51.606;-0.114;2023-04-09T04:29:04;6.78;;;5.43;;
56503;SDS011;48812;51.606;-0.114;2023-04-09T04:31:50;6.25;;;5.40;;
56503;SDS011;48812;51.606;-0.114;2023-04-09T04:34:25;6.05;;;5.45;;
56503;SDS011;48812;51.606;-0.114;2023-04-09T04:37:05;6.68;;;5.20;;
56503;SDS011;48812;51.606;-0.114;2023-04-09T04:39:42;5.82;;;5.22;;
56503;SDS011;48812;51.606;-0.114;2023-04-09T04:42:18;6.43;;;5.53;;
56503;SDS011;48812;51.606;-0.114;2023-04-09T04:44:54;6.80;;;5.10;;
56503;SDS011;48812;51.606;-0.114;2023-04-09T04:47:53;5.60;;;4.93;;
56503;SDS011;48812;51.606;-0.114;2023-04-09T04:50:26;6.38;;;5.63;;
56503;SDS011;48812;51.606;-0.114;2023-04-09T04:53:06;6.35;;;5.40;;
56503;SDS011;48812;51.606;-0.114;2023-04-09T04:55:48;7.28;;;6.00;;
56503;SDS011;48812;51.606;-0.114;2023-04-09T04:58:26;6.13;;;5.53;;
56503;SDS011;48812;51.606;-0.114;2023-04-09T05:01:05;7.28;;;5.55;;
56503;SDS011;48812;51.606;-0.114;2023-04-09T05:03:38;6.63;;;5.50;;
56503;SDS011;48812;51.606;-0.114;2023-04-09T05:06:28;7.18;;;5.78;;
56503;SDS011;48812;51.606;-0.114;2023-04-09T05:09:03;6.70;;;5.68;;
56503;SDS011;48812;51.606;-0.114;2023-04-09T05:11:48;6.35;;;5.43;;
56503;SDS011;48812;51.606;-0.114;2023-04-09T05:14:24;6.18;;;5.32;;
56503;SDS011;48812;51.606;-0.114;2023-04-09T05:16:59;6.43;;;5.60;;
56503;SDS011;48812;51.606;-0.114;2023-04-09T05:19:42;6.30;;;5.68;;
56503;SDS011;48812;51.606;-0.114;2023-04-09T05:22:16;6.72;;;5.85;;
56503;SDS011;48812;51.606;-0.114;2023-04-09T05:24:50;6.30;;;5.55;;
56503;SDS011;48812;51.606;-0.114;2023-04-09T05:27:24;7.43;;;6.40;;
56503;SDS011;48812;51.606;-0.114;2023-04-09T05:30:08;6.82;;;5.88;;
56503;SDS011;48812;51.606;-0.114;2023-04-09T05:32:43;7.03;;;5.93;;
56503;SDS011;48812;51.606;-0.114;2023-04-09T05:35:15;6.40;;;5.68;;
56503;SDS011;48812;51.606;-0.114;2023-04-09T05:37:49;6.93;;;5.80;;
56503;SDS011;48812;51.606;-0.114;2023-04-09T05:42:56;7.63;;;5.25;;
56503;SDS011;48812;51.606;-0.114;2023-04-09T05:45:42;6.93;;;5.72;;
56503;SDS011;48812;51.606;-0.114;2023-04-09T05:48:15;7.70;;;6.43;;
56503;SDS011;48812;51.606;-0.114;2023-04-09T05:50:53;6.43;;;5.80;;
56503;SDS011;48812;51.606;-0.114;2023-04-09T05:53:30;6.82;;;5.93;;
56503;SDS011;48812;51.606;-0.114;2023-04-09T05:56:03;7.70;;;6.25;;
56503;SDS011;48812;51.606;-0.114;2023-04-09T05:58:51;6.68;;;5.70;;
56503;SDS011;48812;51.606;-0.114;2023-04-09T06:01:23;6.70;;;5.97;;
56503;SDS011;48812;51.606;-0.114;2023-04-09T06:03:56;7.33;;;6.23;;
56503;SDS011;48812;51.606;-0.114;2023-04-09T06:06:32;7.28;;;6.15;;
56503;SDS011;48812;51.606;-0.114;2023-04-09T06:09:04;6.77;;;6.07;;
56503;SDS011;48812;51.606;-0.114;2023-04-09T06:11:41;6.90;;;5.93;;
56503;SDS011;48812;51.606;-0.114;2023-04-09T06:14:16;7.32;;;6.35;;
56503;SDS011;48812;51.606;-0.114;2023-04-09T06:16:49;7.22;;;5.75;;
56503;SDS011;48812;51.606;-0.114;2023-04-09T06:19:21;8.03;;;6.57;;
56503;SDS011;48812;51.606;-0.114;2023-04-09T06:21:57;7.78;;;6.30;;
56503;SDS011;48812;51.606;-0.114;2023-04-09T06:24:33;6.47;;;5.82;;
56503;SDS011;48812;51.606;-0.114;2023-04-09T06:27:06;6.82;;;5.97;;
56503;SDS011;48812;51.606;-0.114;2023-04-09T06:29:39;6.93;;;5.82;;
56503;SDS011;48812;51.606;-0.114;2023-04-09T06:32:11;6.93;;;6.23;;
56503;SDS011;48812;51.606;-0.114;2023-04-09T06:34:46;7.68;;;6.38;;
56503;SDS011;48812;51.606;-0.114;2023-04-09T06:37:19;7.30;;;6.25;;
56503;SDS011;48812;51.606;-0.114;2023-04-09T06:39:57;8.27;;;6.85;;
56503;SDS011;48812;51.606;-0.114;2023-04-09T06:43:45;7.55;;;6.50;;
56503;SDS011;48812;51.606;-0.114;2023-04-09T06:47:57;7.43;;;6.25;;
56503;SDS011;48812;51.606;-0.114;2023-04-09T06:51:39;8.02;;;6.47;;
56503;SDS011;48812;51.606;-0.114;2023-04-09T06:55:09;8.07;;;6.47;;
56503;SDS011;48812;51.606;-0.114;2023-04-09T06:59:01;8.10;;;6.70;;
56503;SDS011;48812;51.606;-0.114;2023-04-09T07:07:10;9.05;;;6.78;;
56503;SDS011;48812;51.606;-0.114;2023-04-09T07:12:45;8.32;;;6.32;;
56503;SDS011;48812;51.606;-0.114;2023-04-09T07:15:17;8.43;;;6.82;;
56503;SDS011;48812;51.606;-0.114;2023-04-09T07:17:50;9.05;;;7.32;;
56503;SDS011;48812;51.606;-0.114;2023-04-09T07:20:22;8.98;;;7.32;;
56503;SDS011;48812;51.606;-0.114;2023-04-09T07:22:56;9.45;;;7.78;;
56503;SDS011;48812;51.606;-0.114;2023-04-09T07:25:28;8.50;;;7.20;;
56503;SDS011;48812;51.606;-0.114;2023-04-09T07:28:02;8.23;;;7.03;;
56503;SDS011;48812;51.606;-0.114;2023-04-09T07:30:35;9.15;;;7.43;;
56503;SDS011;48812;51.606;-0.114;2023-04-09T07:33:07;8.00;;;6.82;;
56503;SDS011;48812;51.606;-0.114;2023-04-09T07:35:41;8.90;;;7.32;;
56503;SDS011;48812;51.606;-0.114;2023-04-09T07:38:16;9.13;;;7.20;;
56503;SDS011;48812;51.606;-0.114;2023-04-09T07:40:50;7.70;;;6.90;;
56503;SDS011;48812;51.606;-0.114;2023-04-09T07:43:22;8.75;;;6.70;;
56503;SDS011;48812;51.606;-0.114;2023-04-09T07:45:55;8.10;;;6.70;;
56503;SDS011;48812;51.606;-0.114;2023-04-09T07:48:28;7.07;;;6.28;;
56503;SDS011;48812;51.606;-0.114;2023-04-09T07:51:01;9.20;;;7.20;;
56503;SDS011;48812;51.606;-0.114;2023-04-09T07:53:34;8.90;;;6.82;;
56503;SDS011;48812;51.606;-0.114;2023-04-09T07:56:06;9.13;;;6.65;;
56503;SDS011;48812;51.606;-0.114;2023-04-09T07:58:41;8.52;;;7.05;;
56503;SDS011;48812;51.606;-0.114;2023-04-09T08:01:14;9.45;;;7.47;;
56503;SDS011;48812;51.606;-0.114;2023-04-09T08:03:47;8.63;;;7.35;;
56503;SDS011;48812;51.606;-0.114;2023-04-09T08:06:22;9.77;;;7.28;;
56503;SDS011;48812;51.606;-0.114;2023-04-09T08:08:55;9.10;;;7.38;;
56503;SDS011;48812;51.606;-0.114;2023-04-09T08:11:33;8.88;;;7.07;;
56503;SDS011;48812;51.606;-0.114;2023-04-09T08:14:08;9.02;;;7.38;;
56503;SDS011;48812;51.606;-0.114;2023-04-09T08:16:44;9.32;;;7.60;;
56503;SDS011;48812;51.606;-0.114;2023-04-09T08:19:18;10.10;;;7.47;;
56503;SDS011;48812;51.606;-0.114;2023-04-09T08:21:52;8.55;;;7.43;;
56503;SDS011;48812;51.606;-0.114;2023-04-09T08:24:25;10.50;;;8.18;;
56503;SDS011;48812;51.606;-0.114;2023-04-09T08:26:57;8.52;;;7.25;;
56503;SDS011;48812;51.606;-0.114;2023-04-09T08:29:30;9.38;;;7.40;;
56503;SDS011;48812;51.606;-0.114;2023-04-09T08:32:05;10.07;;;8.00;;
56503;SDS011;48812;51.606;-0.114;2023-04-09T08:34:41;9.73;;;7.88;;
56503;SDS011;48812;51.606;-0.114;2023-04-09T08:37:16;9.48;;;7.85;;
56503;SDS011;48812;51.606;-0.114;2023-04-09T08:39:50;10.88;;;8.32;;
56503;SDS011;48812;51.606;-0.114;2023-04-09T08:42:23;10.02;;;8.30;;
56503;SDS011;48812;51.606;-0.114;2023-04-09T08:45:02;10.48;;;8.15;;
56503;SDS011;48812;51.606;-0.114;2023-04-09T08:47:36;10.32;;;8.07;;
56503;SDS011;48812;51.606;-0.114;2023-04-09T08:50:13;9.15;;;7.45;;
56503;SDS011;48812;51.606;-0.114;2023-04-09T08:52:46;9.38;;;7.75;;
56503;SDS011;48812;51.606;-0.114;2023-04-09T08:55:20;9.32;;;7.47;;
56503;SDS011;48812;51.606;-0.114;2023-04-09T08:57:57;10.10;;;7.65;;
56503;SDS011;48812;51.606;-0.114;2023-04-09T09:00:32;10.10;;;8.13;;
56503;SDS011;48812;51.606;-0.114;2023-04-09T09:03:06;9.18;;;7.55;;
56503;SDS011;48812;51.606;-0.114;2023-04-09T09:05:46;9.90;;;8.10;;
56503;SDS011;48812;51.606;-0.114;2023-04-09T09:08:23;10.13;;;8.07;;
56503;SDS011;48812;51.606;-0.114;2023-04-09T09:10:58;10.90;;;8.32;;
56503;SDS011;48812;51.606;-0.114;2023-04-09T09:13:33;11.05;;;8.65;;
56503;SDS011;48812;51.606;-0.114;2023-04-09T09:16:13;11.05;;;8.20;;
56503;SDS011;48812;51.606;-0.114;2023-04-09T09:18:49;10.38;;;8.52;;
56503;SDS011;48812;51.606;-0.114;2023-04-09T09:21:28;11.23;;;8.30;;
56503;SDS011;48812;51.606;-0.114;2023-04-09T09:24:01;10.57;;;8.20;;
56503;SDS011;48812;51.606;-0.114;2023-04-09T09:26:48;10.38;;;8.45;;
56503;SDS011;48812;51.606;-0.114;2023-04-09T09:29:21;10.73;;;8.63;;
56503;SDS011;48812;51.606;-0.114;2023-04-09T09:31:55;9.88;;;7.90;;
56503;SDS011;48812;51.606;-0.114;2023-04-09T09:34:30;10.50;;;8.20;;
56503;SDS011;48812;51.606;-0.114;2023-04-09T09:37:24;10.98;;;8.30;;
56503;SDS011;48812;51.606;-0.114;2023-04-09T09:40:02;11.07;;;8.70;;
56503;SDS011;48812;51.606;-0.114;2023-04-09T09:42:53;11.23;;;8.85;;
56503;SDS011;48812;51.606;-0.114;2023-04-09T09:45:26;12.75;;;8.93;;
56503;SDS011;48812;51.606;-0.114;2023-04-09T09:50:33;10.63;;;8.47;;
56503;SDS011;48812;51.606;-0.114;2023-04-09T09:53:10;11.55;;;8.68;;
56503;SDS011;48812;51.606;-0.114;2023-04-09T09:55:43;10.45;;;8.60;;
56503;SDS011;48812;51.606;-0.114;2023-04-09T09:58:23;12.68;;;9.05;;
56503;SDS011;48812;51.606;-0.114;2023-04-09T10:01:06;12.02;;;8.88;;
56503;SDS011;48812;51.606;-0.114;2023-04-09T10:03:42;10.70;;;8.38;;
56503;SDS011;48812;51.606;-0.114;2023-04-09T10:06:15;10.55;;;8.70;;
56503;SDS011;48812;51.606;-0.114;2023-04-09T10:08:48;11.45;;;8.40;;
56503;SDS011;48812;51.606;-0.114;2023-04-09T10:11:23;11.43;;;8.57;;
56503;SDS011;48812;51.606;-0.114;2023-04-09T10:13:58;11.00;;;8.63;;
56503;SDS011;48812;51.606;-0.114;2023-04-09T10:16:30;10.30;;;8.32;;
56503;SDS011;48812;51.606;-0.114;2023-04-09T10:21:40;10.38;;;8.02;;
56503;SDS011;48812;51.606;-0.114;2023-04-09T10:24:14;10.68;;;8.23;;
56503;SDS011;48812;51.606;-0.114;2023-04-09T10:26:48;11.02;;;8.05;;
56503;SDS011;48812;51.606;-0.114;2023-04-09T10:29:28;11.18;;;8.93;;
56503;SDS011;48812;51.606;-0.114;2023-04-09T10:32:03;9.95;;;7.88;;
56503;SDS011;48812;51.606;-0.114;2023-04-09T10:34:37;10.57;;;8.73;;
56503;SDS011;48812;51.606;-0.114;2023-04-09T10:37:24;10.30;;;7.85;;
56503;SDS011;48812;51.606;-0.114;2023-04-09T10:40:02;11.20;;;8.00;;
56503;SDS011;48812;51.606;-0.114;2023-04-09T10:42:36;9.98;;;7.40;;
56503;SDS011;48812;51.606;-0.114;2023-04-09T10:45:14;9.68;;;7.30;;
56503;SDS011;48812;51.606;-0.114;2023-04-09T10:47:50;8.40;;;7.35;;
56503;SDS011;48812;51.606;-0.114;2023-04-09T10:50:25;9.18;;;7.20;;
56503;SDS011;48812;51.606;-0.114;2023-04-09T10:53:01;9.75;;;7.63;;
56503;SDS011;48812;51.606;-0.114;2023-04-09T10:55:36;9.60;;;7.43;;
56503;SDS011;48812;51.606;-0.114;2023-04-09T10:58:10;8.68;;;6.68;;
56503;SDS011;48812;51.606;-0.114;2023-04-09T11:00:47;9.88;;;7.28;;
56503;SDS011;48812;51.606;-0.114;2023-04-09T11:03:25;8.73;;;7.20;;
56503;SDS011;48812;51.606;-0.114;2023-04-09T11:06:08;7.57;;;6.75;;
56503;SDS011;48812;51.606;-0.114;2023-04-09T11:08:42;8.93;;;7.10;;
56503;SDS011;48812;51.606;-0.114;2023-04-09T11:11:18;8.63;;;6.72;;
56503;SDS011;48812;51.606;-0.114;2023-04-09T11:13:58;7.55;;;6.15;;
56503;SDS011;48812;51.606;-0.114;2023-04-09T11:16:37;8.18;;;6.75;;
56503;SDS011;48812;51.606;-0.114;2023-04-09T11:19:10;8.38;;;6.80;;
56503;SDS011;48812;51.606;-0.114;2023-04-09T11:21:43;8.10;;;6.15;;
56503;SDS011;48812;51.606;-0.114;2023-04-09T11:24:18;8.57;;;6.88;;
56503;SDS011;48812;51.606;-0.114;2023-04-09T11:26:51;9.23;;;6.50;;
56503;SDS011;48812;51.606;-0.114;2023-04-09T11:29:27;8.57;;;6.35;;
56503;SDS011;48812;51.606;-0.114;2023-04-09T11:31:59;7.18;;;5.72;;
56503;SDS011;48812;51.606;-0.114;2023-04-09T11:34:34;7.20;;;6.30;;
56503;SDS011;48812;51.606;-0.114;2023-04-09T11:37:12;7.32;;;6.28;;
56503;SDS011;48812;51.606;-0.114;2023-04-09T11:40:27;7.55;;;6.28;;
56503;SDS011;48812;51.606;-0.114;2023-04-09T11:48:19;7.03;;;5.53;;
56503;SDS011;48812;51.606;-0.114;2023-04-09T11:52:18;6.65;;;5.78;;
56503;SDS011;48812;51.606;-0.114;2023-04-09T11:59:55;5.63;;;4.70;;
56503;SDS011;48812;51.606;-0.114;2023-04-09T12:15:06;6.82;;;4.88;;
56503;SDS011;48812;51.606;-0.114;2023-04-09T12:18:59;5.97;;;4.87;;
56503;SDS011;48812;51.606;-0.114;2023-04-09T12:26:50;5.43;;;4.53;;
56503;SDS011;48812;51.606;-0.114;2023-04-09T12:29:28;5.10;;;4.55;;
56503;SDS011;48812;51.606;-0.114;2023-04-09T12:32:01;6.60;;;5.25;;
56503;SDS011;48812;51.606;-0.114;2023-04-09T12:34:36;5.47;;;4.28;;
56503;SDS011;48812;51.606;-0.114;2023-04-09T12:37:17;5.30;;;4.55;;
56503;SDS011;48812;51.606;-0.114;2023-04-09T12:40:54;4.75;;;4.18;;
56503;SDS011;48812;51.606;-0.114;2023-04-09T12:44:40;5.95;;;4.72;;
56503;SDS011;48812;51.606;-0.114;2023-04-09T12:48:18;4.90;;;4.30;;
56503;SDS011;48812;51.606;-0.114;2023-04-09T12:52:42;5.22;;;4.60;;
56503;SDS011;48812;51.606;-0.114;2023-04-09T12:55:57;5.15;;;4.05;;
56503;SDS011;48812;51.606;-0.114;2023-04-09T12:59:51;4.47;;;4.03;;
56503;SDS011;48812;51.606;-0.114;2023-04-09T13:02:56;4.85;;;4.25;;
56503;SDS011;48812;51.606;-0.114;2023-04-09T13:05:30;4.75;;;4.15;;
56503;SDS011;48812;51.606;-0.114;2023-04-09T13:08:06;5.07;;;4.40;;
56503;SDS011;48812;51.606;-0.114;2023-04-09T13:10:39;5.95;;;4.35;;
56503;SDS011;48812;51.606;-0.114;2023-04-09T13:13:15;5.25;;;4.28;;
56503;SDS011;48812;51.606;-0.114;2023-04-09T13:15:50;5.28;;;4.00;;
56503;SDS011;48812;51.606;-0.114;2023-04-09T13:18:23;4.40;;;3.80;;
56503;SDS011;48812;51.606;-0.114;2023-04-09T13:20:57;4.75;;;4.03;;
56503;SDS011;48812;51.606;-0.114;2023-04-09T13:23:32;6.45;;;4.47;;
56503;SDS011;48812;51.606;-0.114;2023-04-09T13:26:08;4.95;;;4.00;;
56503;SDS011;48812;51.606;-0.114;2023-04-09T13:28:43;5.65;;;4.18;;
56503;SDS011;48812;51.606;-0.114;2023-04-09T13:31:16;5.00;;;3.95;;
56503;SDS011;48812;51.606;-0.114;2023-04-09T13:33:49;4.57;;;4.18;;
56503;SDS011;48812;51.606;-0.114;2023-04-09T13:36:23;4.65;;;3.72;;
56503;SDS011;48812;51.606;-0.114;2023-04-09T13:38:56;4.53;;;3.58;;
56503;SDS011;48812;51.606;-0.114;2023-04-09T13:41:37;4.50;;;3.80;;
56503;SDS011;48812;51.606;-0.114;2023-04-09T13:44:10;4.65;;;4.10;;
56503;SDS011;48812;51.606;-0.114;2023-04-09T13:46:44;4.78;;;4.15;;
56503;SDS011;48812;51.606;-0.114;2023-04-09T13:49:20;4.93;;;3.92;;
56503;SDS011;48812;51.606;-0.114;2023-04-09T13:51:53;4.38;;;3.83;;
56503;SDS011;48812;51.606;-0.114;2023-04-09T13:54:29;5.78;;;3.90;;
56503;SDS011;48812;51.606;-0.114;2023-04-09T13:57:06;4.70;;;4.10;;
56503;SDS011;48812;51.606;-0.114;2023-04-09T13:59:41;4.57;;;3.58;;
56503;SDS011;48812;51.606;-0.114;2023-04-09T14:02:19;4.07;;;3.47;;
56503;SDS011;48812;51.606;-0.114;2023-04-09T14:04:56;4.00;;;3.60;;
56503;SDS011;48812;51.606;-0.114;2023-04-09T14:07:33;4.20;;;3.30;;
56503;SDS011;48812;51.606;-0.114;2023-04-09T14:10:07;3.88;;;3.47;;
56503;SDS011;48812;51.606;-0.114;2023-04-09T14:12:41;3.95;;;3.58;;
56503;SDS011;48812;51.606;-0.114;2023-04-09T14:15:13;3.83;;;3.37;;
56503;SDS011;48812;51.606;-0.114;2023-04-09T14:17:47;4.55;;;3.67;;
56503;SDS011;48812;51.606;-0.114;2023-04-09T14:20:21;4.10;;;3.65;;
56503;SDS011;48812;51.606;-0.114;2023-04-09T14:22:58;3.80;;;3.35;;
56503;SDS011;48812;51.606;-0.114;2023-04-09T14:25:34;3.50;;;3.20;;
56503;SDS011;48812;51.606;-0.114;2023-04-09T14:28:06;4.10;;;3.70;;
56503;SDS011;48812;51.606;-0.114;2023-04-09T14:30:40;3.97;;;3.38;;
56503;SDS011;48812;51.606;-0.114;2023-04-09T14:33:15;4.00;;;3.50;;
56503;SDS011;48812;51.606;-0.114;2023-04-09T14:35:48;3.50;;;3.20;;
56503;SDS011;48812;51.606;-0.114;2023-04-09T14:38:27;3.45;;;3.10;;
56503;SDS011;48812;51.606;-0.114;2023-04-09T14:41:02;3.10;;;2.80;;
56503;SDS011;48812;51.606;-0.114;2023-04-09T14:43:35;3.33;;;3.03;;
56503;SDS011;48812;51.606;-0.114;2023-04-09T14:46:12;4.10;;;3.35;;
56503;SDS011;48812;51.606;-0.114;2023-04-09T14:48:45;3.40;;;3.10;;
56503;SDS011;48812;51.606;-0.114;2023-04-09T14:51:20;3.90;;;3.50;;
56503;SDS011;48812;51.606;-0.114;2023-04-09T14:53:52;3.80;;;3.50;;
56503;SDS011;48812;51.606;-0.114;2023-04-09T15:04:44;3.88;;;3.40;;
56503;SDS011;48812;51.606;-0.114;2023-04-09T15:08:27;3.63;;;3.30;;
56503;SDS011;48812;51.606;-0.114;2023-04-09T15:19:59;3.40;;;3.00;;
56503;SDS011;48812;51.606;-0.114;2023-04-09T15:23:52;4.43;;;2.95;;
56503;SDS011;48812;51.606;-0.114;2023-04-09T15:27:41;4.75;;;3.40;;
56503;SDS011;48812;51.606;-0.114;2023-04-09T15:31:49;3.40;;;3.10;;
56503;SDS011;48812;51.606;-0.114;2023-04-09T15:35:52;3.45;;;3.15;;
56503;SDS011;48812;51.606;-0.114;2023-04-09T15:38:29;3.90;;;3.13;;
56503;SDS011;48812;51.606;-0.114;2023-04-09T15:41:05;3.60;;;3.20;;
56503;SDS011;48812;51.606;-0.114;2023-04-09T15:43:42;4.32;;;3.25;;
56503;SDS011;48812;51.606;-0.114;2023-04-09T15:46:18;4.22;;;3.72;;
56503;SDS011;48812;51.606;-0.114;2023-04-09T15:48:54;3.50;;;3.20;;
56503;SDS011;48812;51.606;-0.114;2023-04-09T15:51:29;4.03;;;3.50;;
56503;SDS011;48812;51.606;-0.114;2023-04-09T15:54:02;5.10;;;3.65;;
56503;SDS011;48812;51.606;-0.114;2023-04-09T15:56:35;4.20;;;3.72;;
56503;SDS011;48812;51.606;-0.114;2023-04-09T15:59:14;4.00;;;3.47;;
56503;SDS011;48812;51.606;-0.114;2023-04-09T16:01:48;3.83;;;3.33;;
56503;SDS011;48812;51.606;-0.114;2023-04-09T16:04:21;4.32;;;3.30;;
56503;SDS011;48812;51.606;-0.114;2023-04-09T16:06:54;3.60;;;3.20;;
56503;SDS011;48812;51.606;-0.114;2023-04-09T16:09:28;3.63;;;3.17;;
56503;SDS011;48812;51.606;-0.114;2023-04-09T16:12:01;3.65;;;3.25;;
56503;SDS011;48812;51.606;-0.114;2023-04-09T16:14:34;4.10;;;3.03;;
56503;SDS011;48812;51.606;-0.114;2023-04-09T16:19:44;4.20;;;3.40;;
56503;SDS011;48812;51.606;-0.114;2023-04-09T16:22:17;3.63;;;3.10;;
56503;SDS011;48812;51.606;-0.114;2023-04-09T16:24:52;3.83;;;3.08;;
56503;SDS011;48812;51.606;-0.114;2023-04-09T16:27:24;3.88;;;3.28;;
56503;SDS011;48812;51.606;-0.114;2023-04-09T16:29:59;3.67;;;3.22;;
56503;SDS011;48812;51.606;-0.114;2023-04-09T16:32:32;4.10;;;3.15;;
56503;SDS011;48812;51.606;-0.114;2023-04-09T16:35:04;3.85;;;3.20;;
56503;SDS011;48812;51.606;-0.114;2023-04-09T16:37:37;4.53;;;3.55;;
56503;SDS011;48812;51.606;-0.114;2023-04-09T16:40:13;3.78;;;3.03;;
56503;SDS011;48812;51.606;-0.114;2023-04-09T16:42:52;3.38;;;3.08;;
56503;SDS011;48812;51.606;-0.114;2023-04-09T16:45:25;3.67;;;3.27;;
56503;SDS011;48812;51.606;-0.114;2023-04-09T16:47:57;4.07;;;3.47;;
56503;SDS011;48812;51.606;-0.114;2023-04-09T16:50:30;3.70;;;3.25;;
56503;SDS011;48812;51.606;-0.114;2023-04-09T16:53:02;3.33;;;3.00;;
56503;SDS011;48812;51.606;-0.114;2023-04-09T16:55:37;3.80;;;3.40;;
56503;SDS011;48812;51.606;-0.114;2023-04-09T16:58:10;3.30;;;3.00;;
56503;SDS011;48812;51.606;-0.114;2023-04-09T17:00:42;4.40;;;3.47;;
56503;SDS011;48812;51.606;-0.114;2023-04-09T17:03:19;3.72;;;3.33;;
56503;SDS011;48812;51.606;-0.114;2023-04-09T17:05:55;3.58;;;3.28;;
56503;SDS011;48812;51.606;-0.114;2023-04-09T17:08:32;4.05;;;3.40;;
56503;SDS011;48812;51.606;-0.114;2023-04-09T17:11:06;4.85;;;3.65;;
56503;SDS011;48812;51.606;-0.114;2023-04-09T17:13:39;4.20;;;3.55;;